sensor_id;sensor_type;location;lat;lon;timestamp;P1;durP1;ratioP1;P2;durP2;ratioP2
53022;SDS011;38913;44.338;11.206;2023-09-12T00:01:56;9.30;;;7.10;;
53022;SDS011;38913;44.338;11.206;2023-09-12T00:04:21;10.37;;;7.30;;
53022;SDS011;38913;44.338;11.206;2023-09-12T00:06:46;8.00;;;6.70;;
53022;SDS011;38913;44.338;11.206;2023-09-12T00:09:12;8.27;;;7.47;;
53022;SDS011;38913;44.338;11.206;2023-09-12T00:11:37;7.75;;;6.95;;
53022;SDS011;38913;44.338;11.206;2023-09-12T00:14:02;9.43;;;7.13;;
53022;SDS011;38913;44.338;11.206;2023-09-12T00:16:28;8.93;;;7.32;;
53022;SDS011;38913;44.338;11.206;2023-09-12T00:18:53;9.10;;;6.97;;
53022;SDS011;38913;44.338;11.206;2023-09-12T00:21:18;8.67;;;7.00;;
53022;SDS011;38913;44.338;11.206;2023-09-12T00:23:43;7.73;;;6.93;;
53022;SDS011;38913;44.338;11.206;2023-09-12T00:26:09;9.73;;;6.43;;
53022;SDS011;38913;44.338;11.206;2023-09-12T00:28:34;7.87;;;6.73;;
53022;SDS011;38913;44.338;11.206;2023-09-12T00:30:59;8.43;;;6.78;;
53022;SDS011;38913;44.338;11.206;2023-09-12T00:33:24;7.97;;;7.17;;
53022;SDS011;38913;44.338;11.206;2023-09-12T00:35:50;8.13;;;6.07;;
53022;SDS011;38913;44.338;11.206;2023-09-12T00:38:15;7.60;;;6.47;;
53022;SDS011;38913;44.338;11.206;2023-09-12T00:40:40;7.87;;;7.17;;
53022;SDS011;38913;44.338;11.206;2023-09-12T00:43:05;8.23;;;7.43;;
53022;SDS011;38913;44.338;11.206;2023-09-12T00:45:31;7.97;;;6.90;;
53022;SDS011;38913;44.338;11.206;2023-09-12T00:47:57;7.87;;;7.07;;
53022;SDS011;38913;44.338;11.206;2023-09-12T00:50:23;8.85;;;6.72;;
53022;SDS011;38913;44.338;11.206;2023-09-12T00:52:49;8.02;;;6.75;;
53022;SDS011;38913;44.338;11.206;2023-09-12T00:55:14;8.27;;;7.30;;
53022;SDS011;38913;44.338;11.206;2023-09-12T00:57:39;8.35;;;7.50;;
53022;SDS011;38913;44.338;11.206;2023-09-12T01:00:06;8.63;;;6.78;;
53022;SDS011;38913;44.338;11.206;2023-09-12T01:02:37;7.65;;;6.85;;
53022;SDS011;38913;44.338;11.206;2023-09-12T01:05:03;9.25;;;7.13;;
53022;SDS011;38913;44.338;11.206;2023-09-12T01:07:29;7.70;;;6.95;;
53022;SDS011;38913;44.338;11.206;2023-09-12T01:09:54;8.23;;;7.30;;
53022;SDS011;38913;44.338;11.206;2023-09-12T01:12:20;8.50;;;7.60;;
53022;SDS011;38913;44.338;11.206;2023-09-12T01:14:45;8.70;;;6.80;;
53022;SDS011;38913;44.338;11.206;2023-09-12T01:17:11;7.63;;;6.82;;
53022;SDS011;38913;44.338;11.206;2023-09-12T01:19:36;7.53;;;6.77;;
53022;SDS011;38913;44.338;11.206;2023-09-12T01:24:48;7.05;;;6.20;;
53022;SDS011;38913;44.338;11.206;2023-09-12T01:27:25;7.63;;;6.45;;
53022;SDS011;38913;44.338;11.206;2023-09-12T01:29:53;7.23;;;6.53;;
53022;SDS011;38913;44.338;11.206;2023-09-12T01:32:21;9.23;;;6.78;;
53022;SDS011;38913;44.338;11.206;2023-09-12T01:34:46;12.80;;;8.10;;
53022;SDS011;38913;44.338;11.206;2023-09-12T01:37:11;11.63;;;7.15;;
53022;SDS011;38913;44.338;11.206;2023-09-12T01:39:37;8.05;;;6.30;;
53022;SDS011;38913;44.338;11.206;2023-09-12T01:42:02;7.60;;;6.80;;
53022;SDS011;38913;44.338;11.206;2023-09-12T01:44:28;7.88;;;6.78;;
53022;SDS011;38913;44.338;11.206;2023-09-12T01:46:54;8.48;;;6.57;;
53022;SDS011;38913;44.338;11.206;2023-09-12T01:49:21;7.60;;;6.45;;
53022;SDS011;38913;44.338;11.206;2023-09-12T01:51:47;8.45;;;6.60;;
53022;SDS011;38913;44.338;11.206;2023-09-12T01:54:12;7.70;;;6.95;;
53022;SDS011;38913;44.338;11.206;2023-09-12T01:56:39;8.60;;;6.55;;
53022;SDS011;38913;44.338;11.206;2023-09-12T01:59:04;8.13;;;7.00;;
53022;SDS011;38913;44.338;11.206;2023-09-12T02:01:31;8.13;;;6.63;;
53022;SDS011;38913;44.338;11.206;2023-09-12T02:03:56;9.20;;;6.80;;
53022;SDS011;38913;44.338;11.206;2023-09-12T02:06:21;7.33;;;6.40;;
53022;SDS011;38913;44.338;11.206;2023-09-12T02:08:46;8.07;;;6.80;;
53022;SDS011;38913;44.338;11.206;2023-09-12T02:11:11;9.03;;;6.10;;
53022;SDS011;38913;44.338;11.206;2023-09-12T02:13:37;7.30;;;6.37;;
53022;SDS011;38913;44.338;11.206;2023-09-12T02:16:02;8.80;;;6.13;;
53022;SDS011;38913;44.338;11.206;2023-09-12T02:18:28;7.80;;;6.90;;
53022;SDS011;38913;44.338;11.206;2023-09-12T02:20:53;9.07;;;6.50;;
53022;SDS011;38913;44.338;11.206;2023-09-12T02:23:19;6.93;;;6.27;;
53022;SDS011;38913;44.338;11.206;2023-09-12T02:25:44;7.23;;;6.53;;
53022;SDS011;38913;44.338;11.206;2023-09-12T02:28:09;7.70;;;6.63;;
53022;SDS011;38913;44.338;11.206;2023-09-12T02:30:37;7.17;;;6.43;;
53022;SDS011;38913;44.338;11.206;2023-09-12T02:33:02;7.80;;;6.55;;
53022;SDS011;38913;44.338;11.206;2023-09-12T02:35:28;8.15;;;6.80;;
53022;SDS011;38913;44.338;11.206;2023-09-12T02:37:53;8.30;;;7.15;;
53022;SDS011;38913;44.338;11.206;2023-09-12T02:40:19;8.63;;;7.13;;
53022;SDS011;38913;44.338;11.206;2023-09-12T02:42:44;7.47;;;6.78;;
53022;SDS011;38913;44.338;11.206;2023-09-12T02:45:09;7.53;;;6.43;;
53022;SDS011;38913;44.338;11.206;2023-09-12T02:47:35;7.03;;;6.32;;
53022;SDS011;38913;44.338;11.206;2023-09-12T02:50:00;7.88;;;6.53;;
53022;SDS011;38913;44.338;11.206;2023-09-12T02:52:25;7.93;;;6.80;;
53022;SDS011;38913;44.338;11.206;2023-09-12T02:54:51;7.13;;;6.40;;
53022;SDS011;38913;44.338;11.206;2023-09-12T02:57:16;6.70;;;6.10;;
53022;SDS011;38913;44.338;11.206;2023-09-12T02:59:41;8.32;;;6.57;;
53022;SDS011;38913;44.338;11.206;2023-09-12T03:02:06;9.13;;;8.20;;
53022;SDS011;38913;44.338;11.206;2023-09-12T03:04:32;7.23;;;6.53;;
53022;SDS011;38913;44.338;11.206;2023-09-12T03:06:58;7.70;;;6.40;;
53022;SDS011;38913;44.338;11.206;2023-09-12T03:09:23;7.57;;;6.75;;
53022;SDS011;38913;44.338;11.206;2023-09-12T03:11:49;7.55;;;6.75;;
53022;SDS011;38913;44.338;11.206;2023-09-12T03:14:14;8.65;;;6.82;;
53022;SDS011;38913;44.338;11.206;2023-09-12T03:16:39;8.87;;;6.63;;
53022;SDS011;38913;44.338;11.206;2023-09-12T03:19:05;7.47;;;6.20;;
53022;SDS011;38913;44.338;11.206;2023-09-12T03:21:30;7.20;;;6.50;;
53022;SDS011;38913;44.338;11.206;2023-09-12T03:23:55;7.78;;;6.22;;
53022;SDS011;38913;44.338;11.206;2023-09-12T03:26:20;7.27;;;6.50;;
53022;SDS011;38913;44.338;11.206;2023-09-12T03:28:46;7.83;;;6.50;;
53022;SDS011;38913;44.338;11.206;2023-09-12T03:31:13;7.25;;;6.53;;
53022;SDS011;38913;44.338;11.206;2023-09-12T03:33:41;7.07;;;6.38;;
53022;SDS011;38913;44.338;11.206;2023-09-12T03:36:07;7.43;;;6.22;;
53022;SDS011;38913;44.338;11.206;2023-09-12T03:38:33;7.40;;;6.45;;
53022;SDS011;38913;44.338;11.206;2023-09-12T03:40:58;9.93;;;7.05;;
53022;SDS011;38913;44.338;11.206;2023-09-12T03:43:23;19.40;;;7.00;;
53022;SDS011;38913;44.338;11.206;2023-09-12T03:45:49;35.65;;;8.88;;
53022;SDS011;38913;44.338;11.206;2023-09-12T03:48:14;13.63;;;6.70;;
53022;SDS011;38913;44.338;11.206;2023-09-12T03:50:39;12.85;;;7.18;;
53022;SDS011;38913;44.338;11.206;2023-09-12T03:53:05;8.23;;;6.37;;
53022;SDS011;38913;44.338;11.206;2023-09-12T03:55:30;7.33;;;6.30;;
53022;SDS011;38913;44.338;11.206;2023-09-12T03:57:55;7.55;;;6.10;;
53022;SDS011;38913;44.338;11.206;2023-09-12T04:00:21;15.30;;;6.55;;
53022;SDS011;38913;44.338;11.206;2023-09-12T04:02:46;28.10;;;8.60;;
53022;SDS011;38913;44.338;11.206;2023-09-12T04:05:12;13.73;;;6.93;;
53022;SDS011;38913;44.338;11.206;2023-09-12T04:07:37;11.63;;;7.43;;
53022;SDS011;38913;44.338;11.206;2023-09-12T04:10:02;15.48;;;7.10;;
53022;SDS011;38913;44.338;11.206;2023-09-12T04:12:28;7.97;;;6.18;;
53022;SDS011;38913;44.338;11.206;2023-09-12T04:14:53;6.60;;;5.87;;
53022;SDS011;38913;44.338;11.206;2023-09-12T04:17:20;7.22;;;6.30;;
53022;SDS011;38913;44.338;11.206;2023-09-12T04:19:45;9.23;;;6.37;;
53022;SDS011;38913;44.338;11.206;2023-09-12T04:22:10;6.97;;;6.10;;
53022;SDS011;38913;44.338;11.206;2023-09-12T04:24:35;6.57;;;5.90;;
53022;SDS011;38913;44.338;11.206;2023-09-12T04:27:00;7.33;;;5.83;;
53022;SDS011;38913;44.338;11.206;2023-09-12T04:29:26;6.83;;;5.60;;
53022;SDS011;38913;44.338;11.206;2023-09-12T04:31:52;7.50;;;6.10;;
53022;SDS011;38913;44.338;11.206;2023-09-12T04:34:23;8.30;;;6.78;;
53022;SDS011;38913;44.338;11.206;2023-09-12T04:36:49;6.97;;;6.03;;
53022;SDS011;38913;44.338;11.206;2023-09-12T04:39:14;6.67;;;5.57;;
53022;SDS011;38913;44.338;11.206;2023-09-12T04:41:39;16.15;;;6.72;;
53022;SDS011;38913;44.338;11.206;2023-09-12T04:44:05;10.27;;;6.43;;
53022;SDS011;38913;44.338;11.206;2023-09-12T04:46:30;10.57;;;6.78;;
53022;SDS011;38913;44.338;11.206;2023-09-12T04:48:55;8.80;;;6.80;;
53022;SDS011;38913;44.338;11.206;2023-09-12T04:51:20;6.70;;;5.90;;
53022;SDS011;38913;44.338;11.206;2023-09-12T04:53:45;8.50;;;6.23;;
53022;SDS011;38913;44.338;11.206;2023-09-12T04:56:16;10.13;;;6.22;;
53022;SDS011;38913;44.338;11.206;2023-09-12T04:58:41;11.07;;;6.10;;
53022;SDS011;38913;44.338;11.206;2023-09-12T05:01:06;8.77;;;6.90;;
53022;SDS011;38913;44.338;11.206;2023-09-12T05:03:32;8.83;;;6.20;;
53022;SDS011;38913;44.338;11.206;2023-09-12T05:05:58;6.10;;;5.47;;
53022;SDS011;38913;44.338;11.206;2023-09-12T05:08:24;7.05;;;6.03;;
53022;SDS011;38913;44.338;11.206;2023-09-12T05:10:49;8.68;;;5.70;;
53022;SDS011;38913;44.338;11.206;2023-09-12T05:13:15;6.40;;;5.60;;
53022;SDS011;38913;44.338;11.206;2023-09-12T05:15:40;9.10;;;6.22;;
53022;SDS011;38913;44.338;11.206;2023-09-12T05:18:06;7.20;;;5.85;;
53022;SDS011;38913;44.338;11.206;2023-09-12T05:20:32;9.32;;;6.30;;
53022;SDS011;38913;44.338;11.206;2023-09-12T05:22:57;6.95;;;5.68;;
53022;SDS011;38913;44.338;11.206;2023-09-12T05:25:22;8.37;;;5.83;;
53022;SDS011;38913;44.338;11.206;2023-09-12T05:27:47;7.75;;;6.20;;
53022;SDS011;38913;44.338;11.206;2023-09-12T05:30:13;11.90;;;6.60;;
53022;SDS011;38913;44.338;11.206;2023-09-12T05:32:38;8.02;;;5.95;;
53022;SDS011;38913;44.338;11.206;2023-09-12T05:35:03;9.00;;;5.70;;
53022;SDS011;38913;44.338;11.206;2023-09-12T05:37:29;9.00;;;5.72;;
53022;SDS011;38913;44.338;11.206;2023-09-12T05:39:54;11.20;;;5.43;;
53022;SDS011;38913;44.338;11.206;2023-09-12T05:42:19;7.67;;;5.97;;
53022;SDS011;38913;44.338;11.206;2023-09-12T05:44:47;6.15;;;5.07;;
53022;SDS011;38913;44.338;11.206;2023-09-12T05:47:12;8.35;;;5.13;;
53022;SDS011;38913;44.338;11.206;2023-09-12T05:49:37;7.07;;;4.97;;
53022;SDS011;38913;44.338;11.206;2023-09-12T05:52:03;8.75;;;4.78;;
53022;SDS011;38913;44.338;11.206;2023-09-12T05:54:28;5.20;;;4.68;;
53022;SDS011;38913;44.338;11.206;2023-09-12T05:56:53;7.13;;;4.80;;
53022;SDS011;38913;44.338;11.206;2023-09-12T05:59:19;6.40;;;4.65;;
53022;SDS011;38913;44.338;11.206;2023-09-12T06:01:44;5.77;;;4.97;;
53022;SDS011;38913;44.338;11.206;2023-09-12T06:04:10;5.57;;;4.25;;
53022;SDS011;38913;44.338;11.206;2023-09-12T06:06:35;5.93;;;4.47;;
53022;SDS011;38913;44.338;11.206;2023-09-12T06:09:00;7.63;;;4.37;;
53022;SDS011;38913;44.338;11.206;2023-09-12T06:11:26;10.38;;;4.90;;
53022;SDS011;38913;44.338;11.206;2023-09-12T06:13:51;6.87;;;5.20;;
53022;SDS011;38913;44.338;11.206;2023-09-12T06:16:16;8.20;;;4.40;;
53022;SDS011;38913;44.338;11.206;2023-09-12T06:18:41;6.13;;;5.10;;
53022;SDS011;38913;44.338;11.206;2023-09-12T06:21:06;4.60;;;4.20;;
53022;SDS011;38913;44.338;11.206;2023-09-12T06:23:33;4.90;;;4.40;;
53022;SDS011;38913;44.338;11.206;2023-09-12T06:25:59;4.75;;;4.32;;
53022;SDS011;38913;44.338;11.206;2023-09-12T06:28:24;4.53;;;3.97;;
53022;SDS011;38913;44.338;11.206;2023-09-12T06:30:50;7.50;;;4.32;;
53022;SDS011;38913;44.338;11.206;2023-09-12T06:33:15;7.17;;;4.40;;
53022;SDS011;38913;44.338;11.206;2023-09-12T06:35:40;5.97;;;4.30;;
53022;SDS011;38913;44.338;11.206;2023-09-12T06:38:05;6.40;;;4.17;;
53022;SDS011;38913;44.338;11.206;2023-09-12T06:40:30;4.77;;;4.00;;
53022;SDS011;38913;44.338;11.206;2023-09-12T06:42:56;5.00;;;3.90;;
53022;SDS011;38913;44.338;11.206;2023-09-12T06:45:21;5.30;;;4.60;;
53022;SDS011;38913;44.338;11.206;2023-09-12T06:47:46;6.03;;;4.23;;
53022;SDS011;38913;44.338;11.206;2023-09-12T06:50:11;5.13;;;4.30;;
53022;SDS011;38913;44.338;11.206;2023-09-12T06:52:37;5.53;;;4.00;;
53022;SDS011;38913;44.338;11.206;2023-09-12T06:55:02;5.07;;;3.97;;
53022;SDS011;38913;44.338;11.206;2023-09-12T06:57:27;4.40;;;4.00;;
53022;SDS011;38913;44.338;11.206;2023-09-12T06:59:54;5.47;;;4.20;;
53022;SDS011;38913;44.338;11.206;2023-09-12T07:02:19;4.70;;;4.10;;
53022;SDS011;38913;44.338;11.206;2023-09-12T07:04:44;9.10;;;4.03;;
53022;SDS011;38913;44.338;11.206;2023-09-12T07:07:09;4.30;;;3.90;;
53022;SDS011;38913;44.338;11.206;2023-09-12T07:09:35;7.53;;;3.92;;
53022;SDS011;38913;44.338;11.206;2023-09-12T07:12:00;5.17;;;4.10;;
53022;SDS011;38913;44.338;11.206;2023-09-12T07:14:25;4.53;;;3.80;;
53022;SDS011;38913;44.338;11.206;2023-09-12T07:16:50;4.53;;;4.10;;
53022;SDS011;38913;44.338;11.206;2023-09-12T07:19:16;4.40;;;4.00;;
53022;SDS011;38913;44.338;11.206;2023-09-12T07:21:41;6.13;;;3.90;;
53022;SDS011;38913;44.338;11.206;2023-09-12T07:24:06;4.00;;;3.60;;
53022;SDS011;38913;44.338;11.206;2023-09-12T07:26:32;5.00;;;3.75;;
53022;SDS011;38913;44.338;11.206;2023-09-12T07:28:57;4.60;;;3.70;;
53022;SDS011;38913;44.338;11.206;2023-09-12T07:31:23;3.88;;;3.50;;
53022;SDS011;38913;44.338;11.206;2023-09-12T07:33:48;3.92;;;3.63;;
53022;SDS011;38913;44.338;11.206;2023-09-12T07:36:13;3.87;;;3.47;;
53022;SDS011;38913;44.338;11.206;2023-09-12T07:38:40;3.85;;;3.45;;
53022;SDS011;38913;44.338;11.206;2023-09-12T07:41:06;4.57;;;3.60;;
53022;SDS011;38913;44.338;11.206;2023-09-12T07:43:32;3.90;;;3.40;;
53022;SDS011;38913;44.338;11.206;2023-09-12T07:45:57;6.13;;;3.93;;
53022;SDS011;38913;44.338;11.206;2023-09-12T07:48:23;4.18;;;3.78;;
53022;SDS011;38913;44.338;11.206;2023-09-12T07:50:48;5.07;;;3.55;;
53022;SDS011;38913;44.338;11.206;2023-09-12T07:53:14;5.57;;;3.88;;
53022;SDS011;38913;44.338;11.206;2023-09-12T07:55:39;4.53;;;3.97;;
53022;SDS011;38913;44.338;11.206;2023-09-12T07:58:14;4.80;;;4.10;;
53022;SDS011;38913;44.338;11.206;2023-09-12T08:00:39;7.90;;;4.47;;
53022;SDS011;38913;44.338;11.206;2023-09-12T08:03:05;5.20;;;3.55;;
53022;SDS011;38913;44.338;11.206;2023-09-12T08:05:30;5.07;;;4.17;;
53022;SDS011;38913;44.338;11.206;2023-09-12T08:07:55;6.07;;;3.90;;
53022;SDS011;38913;44.338;11.206;2023-09-12T08:10:21;6.23;;;4.03;;
53022;SDS011;38913;44.338;11.206;2023-09-12T08:12:46;5.30;;;3.33;;
53022;SDS011;38913;44.338;11.206;2023-09-12T08:15:11;4.23;;;3.83;;
53022;SDS011;38913;44.338;11.206;2023-09-12T08:17:37;4.28;;;3.88;;
53022;SDS011;38913;44.338;11.206;2023-09-12T08:20:03;5.28;;;3.78;;
53022;SDS011;38913;44.338;11.206;2023-09-12T08:22:28;4.70;;;3.83;;
53022;SDS011;38913;44.338;11.206;2023-09-12T08:24:53;5.10;;;3.80;;
53022;SDS011;38913;44.338;11.206;2023-09-12T08:27:19;5.23;;;3.97;;
53022;SDS011;38913;44.338;11.206;2023-09-12T08:29:44;4.77;;;4.17;;
53022;SDS011;38913;44.338;11.206;2023-09-12T08:32:09;5.03;;;4.13;;
53022;SDS011;38913;44.338;11.206;2023-09-12T08:34:35;5.30;;;3.37;;
53022;SDS011;38913;44.338;11.206;2023-09-12T08:37:00;5.87;;;4.00;;
53022;SDS011;38913;44.338;11.206;2023-09-12T08:39:26;4.85;;;3.85;;
53022;SDS011;38913;44.338;11.206;2023-09-12T08:41:52;5.38;;;3.80;;
53022;SDS011;38913;44.338;11.206;2023-09-12T08:44:18;4.80;;;4.05;;
53022;SDS011;38913;44.338;11.206;2023-09-12T08:46:44;3.90;;;3.50;;
53022;SDS011;38913;44.338;11.206;2023-09-12T08:49:10;5.78;;;3.60;;
53022;SDS011;38913;44.338;11.206;2023-09-12T08:51:36;6.28;;;3.85;;
53022;SDS011;38913;44.338;11.206;2023-09-12T08:54:02;4.47;;;3.72;;
53022;SDS011;38913;44.338;11.206;2023-09-12T08:56:29;4.03;;;3.63;;
53022;SDS011;38913;44.338;11.206;2023-09-12T08:58:55;4.20;;;3.80;;
53022;SDS011;38913;44.338;11.206;2023-09-12T09:01:21;5.05;;;3.90;;
53022;SDS011;38913;44.338;11.206;2023-09-12T09:03:46;4.83;;;4.10;;
53022;SDS011;38913;44.338;11.206;2023-09-12T09:06:12;5.93;;;4.05;;
53022;SDS011;38913;44.338;11.206;2023-09-12T09:08:39;4.78;;;3.50;;
53022;SDS011;38913;44.338;11.206;2023-09-12T09:11:04;4.15;;;3.75;;
53022;SDS011;38913;44.338;11.206;2023-09-12T09:13:31;5.30;;;3.70;;
53022;SDS011;38913;44.338;11.206;2023-09-12T09:16:13;5.63;;;3.75;;
53022;SDS011;38913;44.338;11.206;2023-09-12T09:18:54;6.78;;;3.92;;
53022;SDS011;38913;44.338;11.206;2023-09-12T09:21:20;4.63;;;3.67;;
53022;SDS011;38913;44.338;11.206;2023-09-12T09:23:49;5.13;;;3.67;;
53022;SDS011;38913;44.338;11.206;2023-09-12T09:26:14;3.97;;;3.63;;
53022;SDS011;38913;44.338;11.206;2023-09-12T09:28:39;3.97;;;3.58;;
53022;SDS011;38913;44.338;11.206;2023-09-12T09:31:09;4.83;;;3.83;;
53022;SDS011;38913;44.338;11.206;2023-09-12T09:33:35;6.03;;;4.03;;
53022;SDS011;38913;44.338;11.206;2023-09-12T09:36:04;5.53;;;3.70;;
53022;SDS011;38913;44.338;11.206;2023-09-12T09:38:30;5.90;;;4.20;;
53022;SDS011;38913;44.338;11.206;2023-09-12T09:40:55;7.05;;;4.00;;
53022;SDS011;38913;44.338;11.206;2023-09-12T09:43:21;4.55;;;3.78;;
53022;SDS011;38913;44.338;11.206;2023-09-12T09:45:46;4.70;;;4.03;;
53022;SDS011;38913;44.338;11.206;2023-09-12T09:48:22;3.97;;;3.58;;
53022;SDS011;38913;44.338;11.206;2023-09-12T09:50:47;4.07;;;3.65;;
53022;SDS011;38913;44.338;11.206;2023-09-12T09:53:13;5.82;;;3.65;;
53022;SDS011;38913;44.338;11.206;2023-09-12T09:55:38;3.97;;;3.50;;
53022;SDS011;38913;44.338;11.206;2023-09-12T09:58:06;5.87;;;3.50;;
53022;SDS011;38913;44.338;11.206;2023-09-12T10:00:33;3.80;;;3.50;;
53022;SDS011;38913;44.338;11.206;2023-09-12T10:02:58;4.80;;;3.85;;
53022;SDS011;38913;44.338;11.206;2023-09-12T10:05:24;4.05;;;3.65;;
53022;SDS011;38913;44.338;11.206;2023-09-12T10:07:50;5.47;;;3.90;;
53022;SDS011;38913;44.338;11.206;2023-09-12T10:10:16;4.55;;;3.50;;
53022;SDS011;38913;44.338;11.206;2023-09-12T10:13:03;4.25;;;3.85;;
53022;SDS011;38913;44.338;11.206;2023-09-12T10:15:28;4.18;;;3.80;;
53022;SDS011;38913;44.338;11.206;2023-09-12T10:17:56;4.18;;;3.78;;
53022;SDS011;38913;44.338;11.206;2023-09-12T10:20:23;4.65;;;4.00;;
53022;SDS011;38913;44.338;11.206;2023-09-12T10:22:56;4.28;;;3.88;;
53022;SDS011;38913;44.338;11.206;2023-09-12T10:25:24;4.43;;;3.83;;
53022;SDS011;38913;44.338;11.206;2023-09-12T10:27:49;5.43;;;3.83;;
53022;SDS011;38913;44.338;11.206;2023-09-12T10:30:16;4.65;;;3.90;;
53022;SDS011;38913;44.338;11.206;2023-09-12T10:32:42;4.90;;;4.38;;
53022;SDS011;38913;44.338;11.206;2023-09-12T10:35:10;5.38;;;4.10;;
53022;SDS011;38913;44.338;11.206;2023-09-12T10:37:35;4.70;;;4.13;;
53022;SDS011;38913;44.338;11.206;2023-09-12T10:40:02;4.60;;;4.20;;
53022;SDS011;38913;44.338;11.206;2023-09-12T10:42:31;4.68;;;4.28;;
53022;SDS011;38913;44.338;11.206;2023-09-12T10:44:57;4.65;;;4.25;;
53022;SDS011;38913;44.338;11.206;2023-09-12T10:47:24;5.90;;;4.15;;
53022;SDS011;38913;44.338;11.206;2023-09-12T10:49:49;4.72;;;4.20;;
53022;SDS011;38913;44.338;11.206;2023-09-12T10:52:25;4.50;;;4.10;;
53022;SDS011;38913;44.338;11.206;2023-09-12T10:54:50;4.22;;;3.80;;
53022;SDS011;38913;44.338;11.206;2023-09-12T10:57:16;4.40;;;4.00;;
53022;SDS011;38913;44.338;11.206;2023-09-12T11:02:29;4.50;;;4.07;;
53022;SDS011;38913;44.338;11.206;2023-09-12T11:04:55;4.65;;;4.03;;
53022;SDS011;38913;44.338;11.206;2023-09-12T11:07:33;4.22;;;3.83;;
53022;SDS011;38913;44.338;11.206;2023-09-12T11:12:40;4.38;;;4.07;;
53022;SDS011;38913;44.338;11.206;2023-09-12T11:15:06;4.50;;;4.10;;
53022;SDS011;38913;44.338;11.206;2023-09-12T11:17:37;5.15;;;4.65;;
53022;SDS011;38913;44.338;11.206;2023-09-12T11:20:02;4.57;;;4.18;;
53022;SDS011;38913;44.338;11.206;2023-09-12T11:22:35;4.63;;;4.22;;
53022;SDS011;38913;44.338;11.206;2023-09-12T11:25:03;6.25;;;4.50;;
53022;SDS011;38913;44.338;11.206;2023-09-12T11:27:31;4.90;;;4.50;;
53022;SDS011;38913;44.338;11.206;2023-09-12T11:30:03;4.85;;;4.00;;
53022;SDS011;38913;44.338;11.206;2023-09-12T11:32:31;4.65;;;4.25;;
53022;SDS011;38913;44.338;11.206;2023-09-12T11:34:57;5.13;;;4.50;;
53022;SDS011;38913;44.338;11.206;2023-09-12T11:37:26;5.82;;;4.00;;
53022;SDS011;38913;44.338;11.206;2023-09-12T11:39:53;4.55;;;4.15;;
53022;SDS011;38913;44.338;11.206;2023-09-12T11:42:18;4.68;;;4.13;;
53022;SDS011;38913;44.338;11.206;2023-09-12T11:44:44;4.30;;;3.90;;
53022;SDS011;38913;44.338;11.206;2023-09-12T11:47:09;4.13;;;3.75;;
53022;SDS011;38913;44.338;11.206;2023-09-12T11:49:36;4.75;;;4.15;;
53022;SDS011;38913;44.338;11.206;2023-09-12T11:52:02;5.82;;;4.40;;
53022;SDS011;38913;44.338;11.206;2023-09-12T11:54:29;4.30;;;3.80;;
53022;SDS011;38913;44.338;11.206;2023-09-12T11:56:56;4.10;;;3.70;;
53022;SDS011;38913;44.338;11.206;2023-09-12T11:59:24;4.97;;;3.97;;
53022;SDS011;38913;44.338;11.206;2023-09-12T12:01:49;4.28;;;3.88;;
53022;SDS011;38913;44.338;11.206;2023-09-12T12:04:15;4.77;;;4.27;;
53022;SDS011;38913;44.338;11.206;2023-09-12T12:06:40;5.13;;;4.40;;
53022;SDS011;38913;44.338;11.206;2023-09-12T12:09:06;5.40;;;4.70;;
53022;SDS011;38913;44.338;11.206;2023-09-12T12:11:31;5.30;;;4.57;;
53022;SDS011;38913;44.338;11.206;2023-09-12T12:13:57;4.60;;;4.00;;
53022;SDS011;38913;44.338;11.206;2023-09-12T12:16:24;4.55;;;3.97;;
53022;SDS011;38913;44.338;11.206;2023-09-12T12:18:50;5.80;;;4.20;;
53022;SDS011;38913;44.338;11.206;2023-09-12T12:21:19;6.55;;;4.22;;
53022;SDS011;38913;44.338;11.206;2023-09-12T12:23:44;4.90;;;4.40;;
53022;SDS011;38913;44.338;11.206;2023-09-12T12:26:10;4.70;;;4.30;;
53022;SDS011;38913;44.338;11.206;2023-09-12T12:28:35;5.47;;;4.20;;
53022;SDS011;38913;44.338;11.206;2023-09-12T12:31:00;5.07;;;4.57;;
53022;SDS011;38913;44.338;11.206;2023-09-12T12:33:26;5.10;;;4.57;;
53022;SDS011;38913;44.338;11.206;2023-09-12T12:36:01;4.72;;;4.13;;
53022;SDS011;38913;44.338;11.206;2023-09-12T12:38:27;5.05;;;4.40;;
53022;SDS011;38913;44.338;11.206;2023-09-12T12:40:52;6.17;;;4.70;;
53022;SDS011;38913;44.338;11.206;2023-09-12T12:43:17;5.63;;;4.67;;
53022;SDS011;38913;44.338;11.206;2023-09-12T12:45:55;5.05;;;4.57;;
53022;SDS011;38913;44.338;11.206;2023-09-12T12:48:33;5.25;;;4.40;;
53022;SDS011;38913;44.338;11.206;2023-09-12T12:50:59;5.40;;;4.68;;
53022;SDS011;38913;44.338;11.206;2023-09-12T12:53:40;5.25;;;4.18;;
53022;SDS011;38913;44.338;11.206;2023-09-12T12:56:06;4.65;;;4.10;;
53022;SDS011;38913;44.338;11.206;2023-09-12T12:58:31;5.85;;;4.65;;
53022;SDS011;38913;44.338;11.206;2023-09-12T13:00:56;6.17;;;4.57;;
53022;SDS011;38913;44.338;11.206;2023-09-12T13:03:21;4.45;;;4.05;;
53022;SDS011;38913;44.338;11.206;2023-09-12T13:05:47;4.80;;;4.40;;
53022;SDS011;38913;44.338;11.206;2023-09-12T13:08:12;4.63;;;4.07;;
53022;SDS011;38913;44.338;11.206;2023-09-12T13:10:37;5.03;;;4.53;;
53022;SDS011;38913;44.338;11.206;2023-09-12T13:13:02;4.83;;;4.23;;
53022;SDS011;38913;44.338;11.206;2023-09-12T13:15:29;5.03;;;4.32;;
53022;SDS011;38913;44.338;11.206;2023-09-12T13:17:54;5.00;;;4.50;;
53022;SDS011;38913;44.338;11.206;2023-09-12T13:20:19;4.80;;;4.30;;
53022;SDS011;38913;44.338;11.206;2023-09-12T13:22:44;4.65;;;4.20;;
53022;SDS011;38913;44.338;11.206;2023-09-12T13:25:10;4.73;;;4.33;;
53022;SDS011;38913;44.338;11.206;2023-09-12T13:27:35;4.70;;;4.30;;
53022;SDS011;38913;44.338;11.206;2023-09-12T13:30:00;4.87;;;4.47;;
53022;SDS011;38913;44.338;11.206;2023-09-12T13:32:26;4.43;;;4.03;;
53022;SDS011;38913;44.338;11.206;2023-09-12T13:34:52;5.57;;;4.07;;
53022;SDS011;38913;44.338;11.206;2023-09-12T13:37:17;4.78;;;3.80;;
53022;SDS011;38913;44.338;11.206;2023-09-12T13:39:44;5.45;;;4.55;;
53022;SDS011;38913;44.338;11.206;2023-09-12T13:42:13;4.60;;;4.20;;
53022;SDS011;38913;44.338;11.206;2023-09-12T13:44:39;4.80;;;4.30;;
53022;SDS011;38913;44.338;11.206;2023-09-12T13:47:04;5.68;;;4.38;;
53022;SDS011;38913;44.338;11.206;2023-09-12T13:49:30;5.07;;;4.18;;
53022;SDS011;38913;44.338;11.206;2023-09-12T13:51:55;5.07;;;4.33;;
53022;SDS011;38913;44.338;11.206;2023-09-12T13:54:20;4.63;;;4.23;;
53022;SDS011;38913;44.338;11.206;2023-09-12T13:56:46;4.80;;;4.30;;
53022;SDS011;38913;44.338;11.206;2023-09-12T13:59:11;5.47;;;4.30;;
53022;SDS011;38913;44.338;11.206;2023-09-12T14:01:37;5.72;;;4.10;;
53022;SDS011;38913;44.338;11.206;2023-09-12T14:04:02;5.47;;;4.88;;
53022;SDS011;38913;44.338;11.206;2023-09-12T14:06:28;6.25;;;4.57;;
53022;SDS011;38913;44.338;11.206;2023-09-12T14:08:53;5.30;;;4.60;;
53022;SDS011;38913;44.338;11.206;2023-09-12T14:11:18;5.00;;;4.00;;
53022;SDS011;38913;44.338;11.206;2023-09-12T14:13:43;4.97;;;4.07;;
53022;SDS011;38913;44.338;11.206;2023-09-12T14:16:09;4.60;;;4.20;;
53022;SDS011;38913;44.338;11.206;2023-09-12T14:18:34;4.60;;;3.70;;
53022;SDS011;38913;44.338;11.206;2023-09-12T14:20:59;5.17;;;4.67;;
53022;SDS011;38913;44.338;11.206;2023-09-12T14:23:25;4.47;;;4.07;;
53022;SDS011;38913;44.338;11.206;2023-09-12T14:25:50;5.07;;;4.00;;
53022;SDS011;38913;44.338;11.206;2023-09-12T14:28:16;4.38;;;3.97;;
53022;SDS011;38913;44.338;11.206;2023-09-12T14:30:42;5.00;;;4.20;;
53022;SDS011;38913;44.338;11.206;2023-09-12T14:33:10;4.63;;;4.18;;
53022;SDS011;38913;44.338;11.206;2023-09-12T14:35:35;4.55;;;4.15;;